Time;durP1;ratioP1;P1;durP2;ratioP2;P2;SDS_P1;SDS_P2;PMS_P1;PMS_P2;Temp;Humidity;BMP_temperature;BMP_pressure;BME280_temperature;BME280_humidity;BME280_pressure;Samples;Min_cycle;Max_cycle;Signal;HPM_P1;HPM_P2
2022/06/04 00:00:05;;;;;;;1.30;1.20;;;;;21.40;100659.00;;;;2070008;28;20449;-57
2022/06/04 00:01:05;;;;;;;1.50;1.40;;;;;21.40;100659.00;;;;2073344;28;20587;-57
2022/06/04 00:02:06;;;;;;;1.90;1.27;;;;;21.40;100657.00;;;;2076569;28;20352;-57
2022/06/04 00:03:06;;;;;;;1.40;1.30;;;;;21.40;100655.00;;;;2069733;28;20746;-57
2022/06/04 00:04:06;;;;;;;1.43;1.27;;;;;21.40;100655.00;;;;2070304;28;20215;-57
2022/06/04 00:05:08;;;;;;;1.23;1.13;;;;;21.40;100655.00;;;;2069793;28;20214;-57
2022/06/04 00:06:08;;;;;;;1.42;1.33;;;;;21.40;100658.00;;;;2068769;28;20210;-57
2022/06/04 00:07:08;;;;;;;1.63;1.40;;;;;21.40;100657.00;;;;2070136;28;20245;-57
2022/06/04 00:08:09;;;;;;;1.57;1.47;;;;;21.40;100661.00;;;;2069897;28;20214;-57
2022/06/04 00:09:10;;;;;;;1.40;1.30;;;;;21.40;100669.00;;;;2070359;28;20299;-57
2022/06/04 00:15:32;;;;;;;1.10;1.00;;;;;21.40;100655.00;;;;2069421;28;20218;-57
2022/06/04 00:16:33;;;;;;;1.35;1.25;;;;;21.40;100657.00;;;;2070638;28;20210;-57
2022/06/04 00:17:33;;;;;;;1.50;1.40;;;;;21.40;100655.00;;;;2078134;28;20275;-57
2022/06/04 00:18:34;;;;;;;1.20;1.10;;;;;21.40;100646.00;;;;2078645;28;20213;-57
2022/06/04 00:19:34;;;;;;;1.60;1.30;;;;;21.40;100644.00;;;;2077406;28;20217;-56
2022/06/04 00:20:34;;;;;;;1.50;1.33;;;;;21.30;100645.00;;;;2070058;28;20246;-57
2022/06/04 00:21:35;;;;;;;2.03;1.33;;;;;21.40;100641.00;;;;2078020;28;20221;-56
2022/06/04 00:22:36;;;;;;;1.20;1.10;;;;;21.40;100645.00;;;;2078708;28;20267;-56
2022/06/04 00:23:36;;;;;;;1.13;1.03;;;;;21.30;100645.00;;;;2078888;28;20459;-56
2022/06/04 00:24:36;;;;;;;1.30;1.20;;;;;21.30;100646.00;;;;2078189;28;20248;-57
2022/06/04 00:25:38;;;;;;;1.40;1.30;;;;;21.30;100644.00;;;;2077727;28;21152;-57
2022/06/04 00:26:39;;;;;;;1.20;1.10;;;;;21.30;100638.00;;;;2078815;28;20259;-57
2022/06/04 00:27:39;;;;;;;1.60;1.50;;;;;21.30;100638.00;;;;2078576;28;20256;-57
2022/06/04 00:28:39;;;;;;;1.37;1.27;;;;;21.40;100640.00;;;;2078323;28;20209;-57
2022/06/04 00:29:40;;;;;;;1.40;1.30;;;;;21.30;100638.00;;;;2078702;28;20847;-57
2022/06/04 00:30:41;;;;;;;1.20;1.10;;;;;21.30;100635.00;;;;2078025;28;20210;-55
2022/06/04 00:31:41;;;;;;;1.17;1.07;;;;;21.30;100635.00;;;;2070027;28;20222;-57
2022/06/04 00:32:41;;;;;;;1.50;1.40;;;;;21.40;100639.00;;;;2078003;28;20531;-56
2022/06/04 00:33:42;;;;;;;1.30;1.13;;;;;21.40;100637.00;;;;2078624;28;20218;-57
2022/06/04 00:34:42;;;;;;;1.60;1.50;;;;;21.30;100635.00;;;;2077029;28;20644;-62
2022/06/04 00:35:43;;;;;;;1.23;1.13;;;;;21.30;100634.00;;;;2077652;28;21391;-58
2022/06/04 00:36:44;;;;;;;1.40;1.30;;;;;21.30;100627.00;;;;2076490;28;20304;-59
2022/06/04 00:37:44;;;;;;;1.30;1.20;;;;;21.30;100648.00;;;;2068561;28;20218;-56
2022/06/04 00:38:45;;;;;;;2.27;1.40;;;;;21.30;100645.00;;;;2068583;28;20596;-57
2022/06/04 00:39:46;;;;;;;1.10;1.00;;;;;21.30;100642.00;;;;2068883;28;20215;-57
2022/06/04 00:41:07;;;;;;;1.38;1.27;;;;;21.30;100638.00;;;;2077197;28;20465;-57
2022/06/04 00:42:12;;;;;;;1.60;1.50;;;;;21.40;100635.00;;;;2077672;28;20245;-56
2022/06/04 00:43:13;;;;;;;1.50;1.40;;;;;21.40;100638.00;;;;2069950;28;20241;-57
2022/06/04 00:44:13;;;;;;;1.60;1.50;;;;;21.40;100632.00;;;;2061366;28;20219;-55
2022/06/04 00:45:32;;;;;;;1.27;1.17;;;;;21.30;100638.00;;;;2069007;28;20217;-58
2022/06/04 00:46:38;;;;;;;1.30;1.20;;;;;21.40;100640.00;;;;2077080;28;20585;-57
2022/06/04 00:47:39;;;;;;;1.50;1.40;;;;;21.40;100642.00;;;;2077599;28;20221;-58
2022/06/04 00:48:39;;;;;;;1.40;1.30;;;;;21.40;100642.00;;;;2077322;28;20276;-57
2022/06/04 00:49:39;;;;;;;1.20;1.10;;;;;21.40;100641.00;;;;2076736;28;20741;-57
2022/06/04 00:50:40;;;;;;;1.37;1.27;;;;;21.40;100645.00;;;;2078191;28;20218;-56
2022/06/04 00:51:42;;;;;;;1.30;1.20;;;;;21.30;100654.00;;;;2077397;28;20256;-55
2022/06/04 00:52:43;;;;;;;1.50;1.40;;;;;21.30;100648.00;;;;2069925;28;20305;-57
2022/06/04 00:53:43;;;;;;;1.40;1.30;;;;;21.30;100654.00;;;;2070855;28;20279;-57
2022/06/04 00:54:45;;;;;;;2.07;1.93;;;;;21.30;100635.00;;;;2079381;28;20280;-55
2022/06/04 00:55:52;;;;;;;1.30;1.20;;;;;21.30;100655.00;;;;2066522;28;20293;-57
2022/06/04 00:57:10;;;;;;;1.50;1.40;;;;;21.30;100658.00;;;;2063931;28;20216;-56
2022/06/04 00:58:33;;;;;;;1.48;1.30;;;;;21.30;100667.00;;;;2065174;28;20226;-63
2022/06/04 00:59:48;;;;;;;1.50;1.40;;;;;21.40;100666.00;;;;2057686;28;20216;-57
2022/06/04 01:01:02;;;;;;;1.30;1.15;;;;;21.40;100663.00;;;;2060474;28;20210;-56
2022/06/04 01:02:11;;;;;;;1.50;1.40;;;;;21.30;100662.00;;;;2070560;28;20268;-56
2022/06/04 01:03:20;;;;;;;1.50;1.40;;;;;21.30;100669.00;;;;2071113;28;20541;-56
2022/06/04 01:04:49;;;;;;;1.63;1.15;;;;;21.30;100673.00;;;;2071217;28;20721;-55
2022/06/04 01:06:04;;;;;;;1.35;1.25;;;;;21.30;100679.00;;;;2062081;28;20211;-56
2022/06/04 01:07:14;;;;;;;1.60;1.50;;;;;21.30;100669.00;;;;2069648;28;20217;-56
2022/06/04 01:08:43;;;;;;;1.58;1.48;;;;;21.30;100670.00;;;;2059722;28;20697;-57
2022/06/04 01:10:06;;;;;;;1.38;1.27;;;;;21.30;100675.00;;;;2068280;28;20210;-56
2022/06/04 01:11:16;;;;;;;1.45;1.35;;;;;21.30;100674.00;;;;2071075;28;20313;-56
2022/06/04 01:12:27;;;;;;;1.52;1.42;;;;;21.30;100668.00;;;;2071448;28;20312;-56
2022/06/04 01:13:53;;;;;;;1.52;1.42;;;;;21.30;100673.00;;;;2076892;28;20217;-57
2022/06/04 01:15:16;;;;;;;1.30;1.20;;;;;21.30;100678.00;;;;2075988;28;20296;-56
2022/06/04 01:16:28;;;;;;;1.33;1.20;;;;;21.30;100679.00;;;;2079078;28;20241;-56
2022/06/04 01:17:47;;;;;;;1.48;1.38;;;;;21.30;100681.00;;;;2079534;28;20237;-57
2022/06/04 01:19:38;;;;;;;1.30;1.20;;;;;21.30;100683.00;;;;2079150;28;20630;-56
2022/06/04 01:20:47;;;;;;;1.20;1.10;;;;;21.30;100680.00;;;;2061434;28;20310;-56
2022/06/04 01:22:09;;;;;;;1.42;1.33;;;;;21.30;100687.00;;;;2061730;28;20219;-55
2022/06/04 01:23:19;;;;;;;1.50;1.40;;;;;21.30;100685.00;;;;2067649;28;20209;-56
2022/06/04 01:24:19;;;;;;;1.60;1.50;;;;;21.30;100688.00;;;;2075439;28;20245;-57
2022/06/04 01:25:23;;;;;;;1.40;1.30;;;;;21.30;100691.00;;;;2078749;28;20682;-55
2022/06/04 01:26:50;;;;;;;1.40;1.30;;;;;21.30;100689.00;;;;2069336;28;20226;-57
2022/06/04 01:27:53;;;;;;;1.50;1.40;;;;;21.30;100696.00;;;;2074754;28;20602;-56
2022/06/04 01:28:56;;;;;;;1.50;1.40;;;;;21.30;100694.00;;;;2070256;28;20832;-56
2022/06/04 01:30:12;;;;;;;1.30;1.20;;;;;21.30;100705.00;;;;2072143;28;20222;-55
2022/06/04 01:31:14;;;;;;;1.30;1.20;;;;;21.30;100685.00;;;;2085612;28;20227;-56
2022/06/04 01:32:52;;;;;;;1.38;1.27;;;;;21.30;100698.00;;;;2070801;28;20221;-56
2022/06/04 01:33:55;;;;;;;1.45;1.35;;;;;21.30;100705.00;;;;2076037;28;20221;-57
2022/06/04 01:35:11;;;;;;;1.55;1.45;;;;;21.30;100702.00;;;;2070672;28;20297;-57
2022/06/04 01:36:21;;;;;;;1.50;1.40;;;;;21.30;100701.00;;;;2072723;28;20663;-56
2022/06/04 01:38:02;;;;;;;1.50;1.40;;;;;21.30;100696.00;;;;2070891;28;20229;-56
2022/06/04 01:39:04;;;;;;;1.48;1.38;;;;;21.30;100708.00;;;;2067347;28;20217;-55
2022/06/04 01:41:37;;;;;;;1.67;1.50;;;;;21.30;100708.00;;;;2065479;28;20242;-56
2022/06/04 01:42:38;;;;;;;1.52;1.42;;;;;21.30;100699.00;;;;2066894;28;20238;-57
2022/06/04 01:44:15;;;;;;;2.10;1.60;;;;;21.30;100707.00;;;;2063134;28;20258;-57
2022/06/04 01:45:16;;;;;;;1.50;1.40;;;;;21.30;100714.00;;;;2055442;28;20226;-57
2022/06/04 01:46:21;;;;;;;1.33;1.23;;;;;21.30;100716.00;;;;2058326;28;20261;-54
2022/06/04 01:47:21;;;;;;;1.48;1.38;;;;;21.30;100711.00;;;;2055889;28;20836;-58
2022/06/04 01:48:21;;;;;;;1.53;1.40;;;;;21.30;100709.00;;;;2071090;28;20226;-58
2022/06/04 01:49:30;;;;;;;1.47;1.37;;;;;21.30;100704.00;;;;2070831;28;20301;-57
2022/06/04 01:50:35;;;;;;;1.45;1.35;;;;;21.30;100713.00;;;;2063633;28;20214;-57
2022/06/04 01:51:35;;;;;;;1.30;1.20;;;;;21.30;100710.00;;;;2071201;28;20224;-57
2022/06/04 01:52:37;;;;;;;1.40;1.30;;;;;21.30;100712.00;;;;2063170;28;20766;-58
2022/06/04 01:53:38;;;;;;;1.33;1.23;;;;;21.30;100712.00;;;;2062196;28;20636;-56
2022/06/04 01:54:47;;;;;;;1.35;1.25;;;;;21.30;100710.00;;;;2062571;28;20219;-58
2022/06/04 01:55:51;;;;;;;1.25;1.08;;;;;21.30;100695.00;;;;2055228;28;20211;-58
2022/06/04 01:56:54;;;;;;;1.80;1.60;;;;;21.30;100714.00;;;;2056352;28;20883;-56
2022/06/04 01:58:01;;;;;;;1.38;1.23;;;;;21.30;100706.00;;;;2062799;28;20542;-58
2022/06/04 01:59:07;;;;;;;1.50;1.40;;;;;21.30;100712.00;;;;2048588;28;20235;-56
2022/06/04 02:00:13;;;;;;;1.70;1.60;;;;;21.30;100691.00;;;;2056730;28;20254;-56
2022/06/04 02:01:16;;;;;;;1.45;1.35;;;;;21.30;100695.00;;;;2054706;28;20215;-55
2022/06/04 02:02:22;;;;;;;1.45;1.35;;;;;21.30;100699.00;;;;2055369;28;20623;-57
2022/06/04 02:03:33;;;;;;;1.50;1.40;;;;;21.30;100699.00;;;;2055586;28;20219;-58
2022/06/04 02:04:36;;;;;;;1.80;1.30;;;;;21.30;100692.00;;;;2049294;28;20216;-56
2022/06/04 02:05:44;;;;;;;1.67;1.58;;;;;21.20;100692.00;;;;2063089;28;21352;-58
2022/06/04 02:07:29;;;;;;;1.58;1.48;;;;;21.30;100706.00;;;;2070978;28;20310;-57
2022/06/04 02:08:09;;;;;;;2.42;1.27;;;;;21.30;100706.00;;;;2065584;28;20950;-58
2022/06/04 02:09:13;;;;;;;1.50;1.40;;;;;21.30;100707.00;;;;2065537;28;20301;-56
2022/06/04 02:10:21;;;;;;;1.38;1.27;;;;;21.30;100707.00;;;;2061889;28;20277;-58
2022/06/04 02:11:22;;;;;;;1.38;1.23;;;;;21.30;100716.00;;;;2063592;28;20227;-57
2022/06/04 02:12:22;;;;;;;1.25;1.15;;;;;21.30;100706.00;;;;2062669;28;20254;-58
2022/06/04 02:13:23;;;;;;;1.50;1.40;;;;;21.30;100712.00;;;;2054585;28;20707;-58
2022/06/04 02:14:23;;;;;;;1.33;1.23;;;;;21.30;100716.00;;;;2070850;28;20698;-58
2022/06/04 02:15:27;;;;;;;1.53;1.30;;;;;21.30;100707.00;;;;2070062;28;20644;-57
2022/06/04 02:16:37;;;;;;;1.63;1.52;;;;;21.30;100710.00;;;;2062848;28;20304;-58
2022/06/04 02:17:39;;;;;;;1.30;1.20;;;;;21.30;100713.00;;;;2063341;28;20297;-57
2022/06/04 02:18:39;;;;;;;1.50;1.40;;;;;21.30;100712.00;;;;2062759;28;20608;-58
2022/06/04 02:19:41;;;;;;;1.40;1.30;;;;;21.30;100694.00;;;;2062726;28;20219;-58
2022/06/04 02:20:41;;;;;;;1.42;1.30;;;;;21.30;100699.00;;;;2062963;28;20218;-57
2022/06/04 02:21:41;;;;;;;1.60;1.50;;;;;21.30;100698.00;;;;2070389;28;20666;-58
2022/06/04 02:22:42;;;;;;;1.77;1.23;;;;;21.30;100709.00;;;;2067360;28;20210;-57
2022/06/04 02:23:43;;;;;;;1.30;1.20;;;;;21.30;100692.00;;;;2062975;28;20734;-58
2022/06/04 02:24:43;;;;;;;1.50;1.40;;;;;21.30;100708.00;;;;2060239;28;20225;-58
2022/06/04 02:25:44;;;;;;;1.30;1.20;;;;;21.30;100711.00;;;;2074018;28;20453;-58
2022/06/04 02:26:44;;;;;;;1.57;1.30;;;;;21.30;100699.00;;;;2070409;28;20253;-58
2022/06/04 02:27:45;;;;;;;1.33;1.10;;;;;21.30;100713.00;;;;2070097;28;20238;-55
2022/06/04 02:28:45;;;;;;;1.57;1.30;;;;;21.30;100705.00;;;;2070588;28;20215;-58
2022/06/04 02:29:46;;;;;;;1.60;1.50;;;;;21.30;100706.00;;;;2071041;28;20214;-57
2022/06/04 02:31:04;;;;;;;1.47;1.37;;;;;21.30;100701.00;;;;2078964;28;20210;-58
2022/06/04 02:32:14;;;;;;;1.50;1.40;;;;;21.30;100708.00;;;;2079079;28;20642;-58
2022/06/04 02:33:18;;;;;;;1.50;1.40;;;;;21.30;100694.00;;;;2079444;28;20620;-57
2022/06/04 02:34:34;;;;;;;1.58;1.48;;;;;21.30;100703.00;;;;2070571;28;20814;-58
2022/06/04 02:36:16;;;;;;;1.50;1.40;;;;;21.30;100704.00;;;;2069641;28;20221;-58
2022/06/04 02:37:35;;;;;;;1.70;1.42;;;;;21.30;100702.00;;;;2062142;28;20210;-55
2022/06/04 02:38:59;;;;;;;1.63;1.52;;;;;21.30;100693.00;;;;2070947;28;20710;-57
2022/06/04 02:40:18;;;;;;;1.60;1.50;;;;;21.30;100699.00;;;;2062640;28;20226;-55
2022/06/04 02:41:22;;;;;;;1.23;1.10;;;;;21.30;100698.00;;;;2065497;28;20213;-58
2022/06/04 02:42:37;;;;;;;1.70;1.60;;;;;21.30;100701.00;;;;2062398;28;20223;-58
2022/06/04 02:43:51;;;;;;;1.52;1.42;;;;;21.30;100696.00;;;;2064502;28;20302;-57
2022/06/04 02:44:55;;;;;;;1.50;1.40;;;;;21.30;100689.00;;;;2070275;28;20213;-55
2022/06/04 02:46:06;;;;;;;1.85;1.75;;;;;21.30;100691.00;;;;2063729;28;20277;-58
2022/06/04 02:47:15;;;;;;;1.63;1.52;;;;;21.30;100695.00;;;;2063425;28;20233;-58
2022/06/04 02:48:28;;;;;;;1.50;1.40;;;;;21.30;100690.00;;;;2063209;28;20234;-56
2022/06/04 02:49:36;;;;;;;1.58;1.48;;;;;21.30;100699.00;;;;2062617;28;20711;-57
2022/06/04 02:50:40;;;;;;;1.42;1.33;;;;;21.30;100685.00;;;;2062384;28;20222;-57
2022/06/04 02:51:48;;;;;;;1.50;1.40;;;;;21.30;100681.00;;;;2054278;28;20251;-57
2022/06/04 02:52:49;;;;;;;1.50;1.30;;;;;21.30;100686.00;;;;2047867;28;20220;-59
2022/06/04 02:53:49;;;;;;;1.63;1.53;;;;;21.30;100661.00;;;;2054385;28;20220;-57
2022/06/04 02:55:02;;;;;;;1.57;1.47;;;;;21.30;100680.00;;;;2062090;28;20207;-57
2022/06/04 02:56:06;;;;;;;1.33;1.23;;;;;21.30;100682.00;;;;2054753;28;20219;-57
2022/06/04 02:57:08;;;;;;;1.48;1.38;;;;;21.30;100690.00;;;;2055374;28;20215;-56
2022/06/04 02:58:11;;;;;;;1.58;1.40;;;;;21.30;100685.00;;;;2052705;28;20223;-56
2022/06/04 02:59:13;;;;;;;1.52;1.27;;;;;21.30;100689.00;;;;2055404;28;20737;-56
2022/06/04 03:00:17;;;;;;;1.08;1.05;;;;;21.30;100684.00;;;;2060110;28;20229;-57
2022/06/04 03:01:17;;;;;;;1.60;1.50;;;;;21.30;100685.00;;;;2069705;28;20218;-57
2022/06/04 03:02:18;;;;;;;1.30;1.20;;;;;21.30;100692.00;;;;2069965;28;20206;-58
2022/06/04 03:03:18;;;;;;;1.30;1.20;;;;;21.30;100689.00;;;;2069759;28;20381;-58
2022/06/04 03:04:19;;;;;;;1.60;1.50;;;;;21.30;100679.00;;;;2069186;28;20617;-59
2022/06/04 03:05:21;;;;;;;1.23;1.13;;;;;21.30;100675.00;;;;2077152;28;20242;-58
2022/06/04 03:06:26;;;;;;;1.40;1.30;;;;;21.30;100678.00;;;;2070284;28;21345;-58
2022/06/04 03:07:27;;;;;;;1.50;1.40;;;;;21.30;100685.00;;;;2064156;28;20284;-59
2022/06/04 03:08:28;;;;;;;1.10;1.00;;;;;21.30;100681.00;;;;2070123;28;20226;-56
2022/06/04 03:09:28;;;;;;;1.70;1.60;;;;;21.30;100685.00;;;;2061799;28;20222;-58
2022/06/04 03:10:30;;;;;;;1.20;1.10;;;;;21.30;100685.00;;;;2061752;28;20302;-58
2022/06/04 03:11:32;;;;;;;1.73;1.63;;;;;21.30;100675.00;;;;2069949;28;20218;-57
2022/06/04 03:12:33;;;;;;;1.40;1.30;;;;;21.30;100664.00;;;;2061464;28;20225;-57
2022/06/04 03:13:34;;;;;;;1.40;1.30;;;;;21.30;100677.00;;;;2069684;28;20256;-58
2022/06/04 03:14:35;;;;;;;1.60;1.50;;;;;21.30;100666.00;;;;2070317;28;20597;-57
2022/06/04 03:15:35;;;;;;;1.40;1.20;;;;;21.30;100667.00;;;;2069439;28;20309;-58
2022/06/04 03:16:38;;;;;;;1.47;1.37;;;;;21.30;100664.00;;;;2070228;28;20214;-55
2022/06/04 03:17:42;;;;;;;1.90;1.70;;;;;21.30;100665.00;;;;2061396;28;20226;-57
2022/06/04 03:18:43;;;;;;;1.70;1.60;;;;;21.30;100659.00;;;;2062685;28;20223;-60
2022/06/04 03:19:43;;;;;;;1.73;1.63;;;;;21.30;100660.00;;;;2069606;28;20214;-58
2022/06/04 03:20:43;;;;;;;1.43;1.33;;;;;21.30;100655.00;;;;2069936;28;20243;-58
2022/06/04 03:21:44;;;;;;;1.60;1.50;;;;;21.30;100657.00;;;;2061753;28;20210;-57
2022/06/04 03:22:44;;;;;;;1.30;1.20;;;;;21.30;100656.00;;;;2061645;28;20222;-57
2022/06/04 03:23:45;;;;;;;1.60;1.50;;;;;21.30;100661.00;;;;2070380;28;20206;-55
2022/06/04 03:24:45;;;;;;;1.43;1.33;;;;;21.30;100657.00;;;;2070374;28;20203;-58
2022/06/04 03:25:46;;;;;;;1.30;1.20;;;;;21.30;100657.00;;;;2069598;28;20238;-58
2022/06/04 03:26:46;;;;;;;1.70;1.60;;;;;21.30;100660.00;;;;2070065;28;20217;-55
2022/06/04 03:27:47;;;;;;;1.30;1.20;;;;;21.30;100639.00;;;;2067823;28;20697;-55
2022/06/04 03:28:47;;;;;;;1.30;1.20;;;;;21.30;100657.00;;;;2061387;28;20226;-60
2022/06/04 03:29:47;;;;;;;1.53;1.43;;;;;21.30;100659.00;;;;2064916;28;20689;-59
2022/06/04 03:30:48;;;;;;;1.60;1.50;;;;;21.30;100662.00;;;;2078167;28;20725;-57
2022/06/04 03:31:48;;;;;;;1.40;1.30;;;;;21.30;100655.00;;;;2078286;28;20708;-58
2022/06/04 03:32:48;;;;;;;1.50;1.40;;;;;21.30;100668.00;;;;2074032;28;20214;-55
2022/06/04 03:33:49;;;;;;;1.20;1.10;;;;;21.30;100664.00;;;;2069638;28;20222;-58
2022/06/04 03:34:49;;;;;;;1.57;1.47;;;;;21.30;100664.00;;;;2070955;28;20214;-57
2022/06/04 03:35:50;;;;;;;2.37;1.50;;;;;21.30;100659.00;;;;2070252;28;20480;-57
2022/06/04 03:36:50;;;;;;;1.23;1.13;;;;;21.30;100656.00;;;;2070749;28;20581;-57
2022/06/04 03:37:50;;;;;;;1.27;1.17;;;;;21.30;100659.00;;;;2070819;28;20217;-58
2022/06/04 03:38:54;;;;;;;1.53;1.43;;;;;21.30;100623.00;;;;2071004;28;20230;-56
2022/06/04 03:39:54;;;;;;;1.52;1.30;;;;;21.30;100649.00;;;;2069885;28;20218;-56
2022/06/04 03:40:55;;;;;;;1.80;1.70;;;;;21.30;100653.00;;;;2070096;28;20213;-56
2022/06/04 03:41:55;;;;;;;1.20;1.10;;;;;21.30;100663.00;;;;2072072;28;20210;-57
2022/06/04 03:42:55;;;;;;;1.20;1.10;;;;;21.30;100656.00;;;;2078946;28;20202;-56
2022/06/04 03:43:56;;;;;;;1.80;1.70;;;;;21.30;100667.00;;;;2078949;28;20209;-56
2022/06/04 03:44:56;;;;;;;2.23;1.60;;;;;21.30;100669.00;;;;2078035;28;20213;-57
2022/06/04 03:45:57;;;;;;;1.60;1.50;;;;;21.30;100682.00;;;;2069170;28;20210;-57
2022/06/04 03:46:57;;;;;;;1.47;1.37;;;;;21.30;100672.00;;;;2077998;28;20241;-54
2022/06/04 03:47:57;;;;;;;1.40;1.30;;;;;21.30;100690.00;;;;2078833;28;20213;-56
2022/06/04 03:48:58;;;;;;;1.50;1.30;;;;;21.30;100691.00;;;;2078983;28;20202;-56
2022/06/04 03:49:58;;;;;;;1.57;1.47;;;;;21.30;100693.00;;;;2078587;28;20206;-56
2022/06/04 03:50:58;;;;;;;2.30;1.57;;;;;21.30;100701.00;;;;2078367;28;20205;-57
2022/06/04 03:51:59;;;;;;;1.70;1.60;;;;;21.30;100690.00;;;;2078196;28;20221;-57
2022/06/04 03:52:59;;;;;;;1.50;1.40;;;;;21.30;100686.00;;;;2079075;28;20209;-57
2022/06/04 03:53:59;;;;;;;1.30;1.20;;;;;21.30;100697.00;;;;2078137;28;20380;-55
2022/06/04 03:55:01;;;;;;;1.40;1.30;;;;;21.30;100698.00;;;;2069884;28;20214;-57
2022/06/04 03:56:01;;;;;;;1.48;1.38;;;;;21.30;100699.00;;;;2077698;28;20224;-56
2022/06/04 03:58:20;;;;;;;1.70;1.60;;;;;21.10;100688.00;;;;2070490;28;20679;-57
2022/06/04 03:59:21;;;;;;;1.80;1.70;;;;;21.10;100691.00;;;;2070621;28;20323;-57
2022/06/04 04:00:22;;;;;;;1.37;1.27;;;;;21.30;100682.00;;;;2066837;28;20218;-55
2022/06/04 04:01:27;;;;;;;1.70;1.60;;;;;21.30;100680.00;;;;2070736;28;20246;-57
2022/06/04 04:02:27;;;;;;;1.35;1.25;;;;;21.30;100676.00;;;;2062063;28;20637;-57
2022/06/04 04:03:27;;;;;;;1.60;1.50;;;;;21.30;100680.00;;;;2061965;28;20250;-56
2022/06/04 04:04:28;;;;;;;1.30;1.20;;;;;21.30;100681.00;;;;2070289;28;20214;-55
2022/06/04 04:05:31;;;;;;;1.40;1.30;;;;;21.30;100690.00;;;;2069889;28;20296;-56
2022/06/04 04:06:32;;;;;;;1.58;1.40;;;;;21.30;100692.00;;;;2061941;28;20312;-55
2022/06/04 04:07:32;;;;;;;1.20;1.10;;;;;21.30;100704.00;;;;2054168;28;20302;-56
2022/06/04 04:08:32;;;;;;;1.50;1.40;;;;;21.30;100706.00;;;;2061940;28;20219;-57
2022/06/04 04:09:33;;;;;;;1.50;1.20;;;;;21.30;100712.00;;;;2069891;28;20703;-57
2022/06/04 04:10:33;;;;;;;1.60;1.50;;;;;21.30;100707.00;;;;2070766;28;20206;-57
2022/06/04 04:11:33;;;;;;;1.93;1.73;;;;;21.30;100712.00;;;;2070557;28;20503;-56
2022/06/04 04:12:34;;;;;;;1.40;1.30;;;;;21.30;100712.00;;;;2070726;28;20217;-57
2022/06/04 04:13:35;;;;;;;1.70;1.60;;;;;21.30;100715.00;;;;2070595;28;20305;-56
2022/06/04 04:14:35;;;;;;;1.40;1.30;;;;;21.30;100724.00;;;;2070327;28;20453;-57
2022/06/04 04:15:35;;;;;;;2.23;1.40;;;;;21.30;100715.00;;;;2069943;28;20218;-58
2022/06/04 04:16:36;;;;;;;1.70;1.20;;;;;21.30;100719.00;;;;2070700;28;20240;-58
2022/06/04 04:17:37;;;;;;;1.47;1.37;;;;;21.30;100709.00;;;;2070735;28;20214;-57
2022/06/04 04:18:37;;;;;;;1.50;1.40;;;;;21.30;100716.00;;;;2069625;28;20274;-55
2022/06/04 04:19:37;;;;;;;1.43;1.33;;;;;21.30;100714.00;;;;2061771;28;20211;-57
2022/06/04 04:20:39;;;;;;;1.37;1.27;;;;;21.30;100715.00;;;;2069866;28;20218;-57
2022/06/04 04:21:40;;;;;;;1.50;1.40;;;;;21.30;100709.00;;;;2078312;28;20590;-57
2022/06/04 04:22:40;;;;;;;1.93;1.43;;;;;21.30;100704.00;;;;2068727;28;20228;-58
2022/06/04 04:23:41;;;;;;;1.30;1.20;;;;;21.30;100712.00;;;;2061723;28;20647;-57
2022/06/04 04:24:42;;;;;;;1.23;1.13;;;;;21.30;100715.00;;;;2062065;28;20305;-55
2022/06/04 04:25:42;;;;;;;1.33;1.23;;;;;21.30;100697.00;;;;2076432;28;20221;-57
2022/06/04 04:26:43;;;;;;;1.40;1.30;;;;;21.30;100646.00;;;;2070694;28;22252;-57
2022/06/04 04:27:43;;;;;;;1.97;1.63;;;;;21.30;100705.00;;;;2069277;28;20713;-56
2022/06/04 04:28:44;;;;;;;1.40;1.30;;;;;21.30;100707.00;;;;2061516;28;20622;-58
2022/06/04 04:29:44;;;;;;;1.53;1.43;;;;;21.30;100705.00;;;;2069737;28;20272;-57
2022/06/04 04:30:45;;;;;;;1.50;1.40;;;;;21.30;100709.00;;;;2070488;28;20496;-57
2022/06/04 04:31:45;;;;;;;1.50;1.40;;;;;21.30;100710.00;;;;2069327;28;20217;-55
2022/06/04 04:32:46;;;;;;;1.40;1.30;;;;;21.30;100707.00;;;;2061774;28;20675;-55
2022/06/04 04:33:46;;;;;;;1.40;1.30;;;;;21.30;100716.00;;;;2069909;28;20257;-57
2022/06/04 04:34:46;;;;;;;1.60;1.50;;;;;21.30;100715.00;;;;2069924;28;20316;-57
2022/06/04 04:35:47;;;;;;;1.20;1.10;;;;;21.30;100721.00;;;;2069256;28;20793;-56
2022/06/04 04:36:47;;;;;;;1.50;1.40;;;;;21.30;100719.00;;;;2069846;28;20216;-57
2022/06/04 04:37:48;;;;;;;1.60;1.50;;;;;21.30;100721.00;;;;2069690;28;20297;-58
2022/06/04 04:38:49;;;;;;;1.20;1.10;;;;;21.30;100717.00;;;;2070336;28;20706;-56
2022/06/04 04:39:49;;;;;;;1.70;1.60;;;;;21.30;100720.00;;;;2070121;28;20214;-58
2022/06/04 04:40:50;;;;;;;1.40;1.30;;;;;21.30;100717.00;;;;2070408;28;20288;-57
2022/06/04 04:41:50;;;;;;;1.50;1.40;;;;;21.30;100719.00;;;;2069579;28;20214;-56
2022/06/04 04:42:51;;;;;;;1.90;1.30;;;;;21.30;100713.00;;;;2070499;28;20273;-57
2022/06/04 04:43:51;;;;;;;1.60;1.50;;;;;21.30;100715.00;;;;2069085;28;20566;-55
2022/06/04 04:44:52;;;;;;;1.53;1.43;;;;;21.30;100719.00;;;;2061575;28;20222;-56
2022/06/04 04:46:03;;;;;;;1.40;1.30;;;;;21.30;100710.00;;;;2061135;28;20214;-55
2022/06/04 04:47:03;;;;;;;1.58;1.10;;;;;21.30;100710.00;;;;2062879;28;20261;-57
2022/06/04 04:48:04;;;;;;;1.50;1.40;;;;;21.30;100713.00;;;;2069788;28;20264;-58
2022/06/04 04:49:04;;;;;;;1.47;1.37;;;;;21.30;100706.00;;;;2069942;28;20217;-58
2022/06/04 04:50:06;;;;;;;1.43;1.33;;;;;21.30;100714.00;;;;2069722;28;20218;-56
2022/06/04 04:51:12;;;;;;;1.70;1.60;;;;;21.30;100714.00;;;;2070068;28;20206;-57
2022/06/04 04:52:12;;;;;;;1.63;1.52;;;;;21.30;100714.00;;;;2061818;28;20226;-56
2022/06/04 04:53:12;;;;;;;1.40;1.30;;;;;21.30;100705.00;;;;2061908;28;20211;-55
2022/06/04 04:54:13;;;;;;;1.33;1.23;;;;;21.30;100714.00;;;;2077909;28;20283;-56
2022/06/04 04:55:13;;;;;;;1.30;1.20;;;;;21.30;100708.00;;;;2070421;28;20214;-56
2022/06/04 04:56:14;;;;;;;1.60;1.50;;;;;21.30;100707.00;;;;2069922;28;20206;-57
2022/06/04 04:57:15;;;;;;;1.40;1.30;;;;;21.30;100720.00;;;;2060345;28;20270;-56
2022/06/04 04:58:15;;;;;;;1.80;1.70;;;;;21.30;100717.00;;;;2060308;28;20226;-56
2022/06/04 04:59:15;;;;;;;1.57;1.47;;;;;21.30;100721.00;;;;2069596;28;20663;-57
2022/06/04 05:00:16;;;;;;;1.47;1.37;;;;;21.30;100717.00;;;;2069190;28;20217;-57
2022/06/04 05:01:18;;;;;;;1.50;1.40;;;;;21.30;100722.00;;;;2070053;28;20214;-56
2022/06/04 05:02:20;;;;;;;1.67;1.58;;;;;21.30;100719.00;;;;2070107;28;20221;-57
2022/06/04 05:03:20;;;;;;;1.75;1.65;;;;;21.30;100727.00;;;;2069830;28;20269;-56
2022/06/04 05:04:20;;;;;;;1.50;1.40;;;;;21.30;100720.00;;;;2061973;28;20219;-57
2022/06/04 05:05:21;;;;;;;1.60;1.50;;;;;21.30;100715.00;;;;2069239;28;20280;-58
2022/06/04 05:06:22;;;;;;;1.57;1.47;;;;;21.30;100716.00;;;;2069737;28;20222;-56
2022/06/04 05:07:22;;;;;;;1.40;1.30;;;;;21.30;100713.00;;;;2061538;28;20636;-57
2022/06/04 05:08:23;;;;;;;1.33;1.23;;;;;21.30;100716.00;;;;2069789;28;20226;-56
2022/06/04 05:09:23;;;;;;;1.93;1.30;;;;;21.30;100724.00;;;;2070586;28;20584;-57
2022/06/04 05:10:24;;;;;;;1.50;1.40;;;;;21.30;100720.00;;;;2070423;28;20607;-55
2022/06/04 05:11:29;;;;;;;1.60;1.50;;;;;21.30;100720.00;;;;2069687;28;20214;-57
2022/06/04 05:12:30;;;;;;;1.40;1.30;;;;;21.30;100723.00;;;;2069423;28;20206;-56
2022/06/04 05:13:30;;;;;;;1.63;1.50;;;;;21.30;100724.00;;;;2070354;28;20218;-57
2022/06/04 05:14:31;;;;;;;1.57;1.47;;;;;21.30;100721.00;;;;2069849;28;20309;-56
2022/06/04 05:15:31;;;;;;;1.70;1.60;;;;;21.30;100726.00;;;;2073350;28;20715;-57
2022/06/04 05:16:34;;;;;;;1.43;1.33;;;;;21.30;100720.00;;;;2070567;28;20630;-57
2022/06/04 05:17:34;;;;;;;1.60;1.40;;;;;21.30;100729.00;;;;2069907;28;20206;-56
2022/06/04 05:18:34;;;;;;;1.57;1.47;;;;;21.30;100723.00;;;;2070347;28;20226;-56
2022/06/04 05:19:35;;;;;;;1.40;1.30;;;;;21.30;100729.00;;;;2070186;28;20214;-57
2022/06/04 05:20:35;;;;;;;1.70;1.60;;;;;21.30;100725.00;;;;2070485;28;20217;-56
2022/06/04 05:21:39;;;;;;;1.50;1.40;;;;;21.30;100736.00;;;;2070555;28;20299;-57
2022/06/04 05:22:39;;;;;;;1.70;1.60;;;;;21.30;100739.00;;;;2060854;28;20310;-57
2022/06/04 05:23:39;;;;;;;1.70;1.60;;;;;21.30;100733.00;;;;2063039;28;20199;-57
2022/06/04 05:24:40;;;;;;;1.57;1.37;;;;;21.30;100727.00;;;;2078503;28;20217;-57